sensor_id;sensor_type;location;lat;lon;timestamp;pressure;altitude;pressure_sealevel;temperature;humidity
58622;BME280;44389;51.578;5.456;2024-01-30T00:00:29;102478.19;;;7.34;100.00
58622;BME280;44389;51.578;5.456;2024-01-30T00:02:54;102479.56;;;7.29;100.00
58622;BME280;44389;51.578;5.456;2024-01-30T00:05:19;102484.44;;;7.25;100.00
58622;BME280;44389;51.578;5.456;2024-01-30T00:07:44;102487.81;;;7.24;100.00
58622;BME280;44389;51.578;5.456;2024-01-30T00:10:10;102484.03;;;7.19;100.00
58622;BME280;44389;51.578;5.456;2024-01-30T00:12:35;102478.69;;;7.16;100.00
58622;BME280;44389;51.578;5.456;2024-01-30T00:15:00;102475.16;;;7.14;100.00
58622;BME280;44389;51.578;5.456;2024-01-30T00:17:26;102476.50;;;7.09;100.00
58622;BME280;44389;51.578;5.456;2024-01-30T00:19:51;102484.06;;;7.07;100.00
58622;BME280;44389;51.578;5.456;2024-01-30T00:22:17;102473.69;;;7.06;100.00
58622;BME280;44389;51.578;5.456;2024-01-30T00:24:42;102471.91;;;7.05;100.00
58622;BME280;44389;51.578;5.456;2024-01-30T00:27:08;102476.06;;;7.03;100.00
58622;BME280;44389;51.578;5.456;2024-01-30T00:29:33;102467.94;;;6.97;100.00
58622;BME280;44389;51.578;5.456;2024-01-30T00:31:59;102473.63;;;6.92;100.00
58622;BME280;44389;51.578;5.456;2024-01-30T00:34:25;102471.88;;;6.80;100.00
58622;BME280;44389;51.578;5.456;2024-01-30T00:36:50;102475.09;;;6.77;100.00
58622;BME280;44389;51.578;5.456;2024-01-30T00:39:15;102470.53;;;6.73;100.00
58622;BME280;44389;51.578;5.456;2024-01-30T00:41:41;102463.19;;;6.66;100.00
58622;BME280;44389;51.578;5.456;2024-01-30T00:44:06;102461.31;;;6.63;100.00
58622;BME280;44389;51.578;5.456;2024-01-30T00:46:32;102458.97;;;6.54;100.00
58622;BME280;44389;51.578;5.456;2024-01-30T00:48:57;102456.63;;;6.57;100.00
58622;BME280;44389;51.578;5.456;2024-01-30T00:51:22;102468.44;;;6.55;100.00
58622;BME280;44389;51.578;5.456;2024-01-30T00:53:48;102460.66;;;6.54;100.00
58622;BME280;44389;51.578;5.456;2024-01-30T00:56:13;102462.88;;;6.49;100.00
58622;BME280;44389;51.578;5.456;2024-01-30T00:58:38;102456.50;;;6.44;100.00
58622;BME280;44389;51.578;5.456;2024-01-30T01:01:04;102452.06;;;6.41;100.00
58622;BME280;44389;51.578;5.456;2024-01-30T01:03:29;102456.09;;;6.38;100.00
58622;BME280;44389;51.578;5.456;2024-01-30T01:05:55;102456.53;;;6.32;100.00
58622;BME280;44389;51.578;5.456;2024-01-30T01:08:20;102455.41;;;6.29;100.00
58622;BME280;44389;51.578;5.456;2024-01-30T01:10:45;102458.31;;;6.21;100.00
58622;BME280;44389;51.578;5.456;2024-01-30T01:13:11;102457.19;;;6.18;100.00
58622;BME280;44389;51.578;5.456;2024-01-30T01:15:36;102453.41;;;6.13;100.00
58622;BME280;44389;51.578;5.456;2024-01-30T01:18:02;102443.72;;;6.08;100.00
58622;BME280;44389;51.578;5.456;2024-01-30T01:20:28;102452.06;;;6.06;100.00
58622;BME280;44389;51.578;5.456;2024-01-30T01:22:53;102446.50;;;6.00;100.00
58622;BME280;44389;51.578;5.456;2024-01-30T01:25:19;102439.44;;;5.97;100.00
58622;BME280;44389;51.578;5.456;2024-01-30T01:27:44;102441.78;;;5.94;100.00
58622;BME280;44389;51.578;5.456;2024-01-30T01:30:16;102441.88;;;5.96;100.00
58622;BME280;44389;51.578;5.456;2024-01-30T01:32:46;102442.66;;;5.94;100.00
58622;BME280;44389;51.578;5.456;2024-01-30T01:35:16;102447.31;;;5.88;100.00
58622;BME280;44389;51.578;5.456;2024-01-30T01:37:41;102444.44;;;5.96;100.00
58622;BME280;44389;51.578;5.456;2024-01-30T01:40:07;102433.31;;;5.95;100.00
58622;BME280;44389;51.578;5.456;2024-01-30T01:42:32;102436.41;;;5.91;100.00
58622;BME280;44389;51.578;5.456;2024-01-30T01:44:58;102434.22;;;5.96;100.00
58622;BME280;44389;51.578;5.456;2024-01-30T01:47:23;102433.97;;;5.92;100.00
58622;BME280;44389;51.578;5.456;2024-01-30T01:49:48;102432.44;;;5.94;100.00
58622;BME280;44389;51.578;5.456;2024-01-30T01:52:14;102433.44;;;5.97;100.00
58622;BME280;44389;51.578;5.456;2024-01-30T01:54:40;102417.56;;;6.01;100.00
58622;BME280;44389;51.578;5.456;2024-01-30T01:57:05;102418.78;;;6.06;100.00
58622;BME280;44389;51.578;5.456;2024-01-30T01:59:31;102428.00;;;6.04;100.00
58622;BME280;44389;51.578;5.456;2024-01-30T02:01:56;102426.22;;;6.03;100.00
58622;BME280;44389;51.578;5.456;2024-01-30T02:04:22;102428.78;;;6.03;100.00
58622;BME280;44389;51.578;5.456;2024-01-30T02:06:47;102423.22;;;5.97;100.00
58622;BME280;44389;51.578;5.456;2024-01-30T02:09:12;102423.97;;;5.96;100.00
58622;BME280;44389;51.578;5.456;2024-01-30T02:11:38;102411.28;;;5.97;100.00
58622;BME280;44389;51.578;5.456;2024-01-30T02:14:04;102422.63;;;5.89;100.00
58622;BME280;44389;51.578;5.456;2024-01-30T02:16:30;102418.19;;;5.86;100.00
58622;BME280;44389;51.578;5.456;2024-01-30T02:18:56;102415.94;;;5.91;100.00
58622;BME280;44389;51.578;5.456;2024-01-30T02:21:21;102416.59;;;5.88;100.00
58622;BME280;44389;51.578;5.456;2024-01-30T02:23:46;102413.50;;;5.92;100.00
58622;BME280;44389;51.578;5.456;2024-01-30T02:26:12;102413.50;;;5.92;100.00
58622;BME280;44389;51.578;5.456;2024-01-30T02:28:38;102414.50;;;5.94;100.00
58622;BME280;44389;51.578;5.456;2024-01-30T02:31:04;102421.31;;;5.94;100.00
58622;BME280;44389;51.578;5.456;2024-01-30T02:33:29;102412.72;;;5.93;100.00
58622;BME280;44389;51.578;5.456;2024-01-30T02:35:55;102415.28;;;5.93;100.00
58622;BME280;44389;51.578;5.456;2024-01-30T02:38:20;102415.38;;;5.95;100.00
58622;BME280;44389;51.578;5.456;2024-01-30T02:40:45;102412.97;;;5.97;100.00
58622;BME280;44389;51.578;5.456;2024-01-30T02:43:11;102410.88;;;6.03;100.00
58622;BME280;44389;51.578;5.456;2024-01-30T02:45:36;102409.50;;;5.96;100.00
58622;BME280;44389;51.578;5.456;2024-01-30T02:48:01;102410.66;;;6.00;100.00
58622;BME280;44389;51.578;5.456;2024-01-30T02:50:26;102404.94;;;5.92;100.00
58622;BME280;44389;51.578;5.456;2024-01-30T02:52:52;102405.50;;;5.88;100.00
58622;BME280;44389;51.578;5.456;2024-01-30T02:55:17;102411.59;;;5.90;100.00
58622;BME280;44389;51.578;5.456;2024-01-30T02:57:43;102408.63;;;5.96;100.00
58622;BME280;44389;51.578;5.456;2024-01-30T03:00:09;102409.28;;;5.93;100.00
58622;BME280;44389;51.578;5.456;2024-01-30T03:02:35;102406.66;;;6.03;100.00
58622;BME280;44389;51.578;5.456;2024-01-30T03:05:00;102405.75;;;6.03;100.00
58622;BME280;44389;51.578;5.456;2024-01-30T03:07:26;102395.06;;;5.97;100.00
58622;BME280;44389;51.578;5.456;2024-01-30T03:09:51;102396.69;;;5.96;100.00
58622;BME280;44389;51.578;5.456;2024-01-30T03:12:16;102397.63;;;5.97;100.00
58622;BME280;44389;51.578;5.456;2024-01-30T03:14:41;102398.72;;;6.00;100.00
58622;BME280;44389;51.578;5.456;2024-01-30T03:17:07;102384.50;;;6.04;100.00
58622;BME280;44389;51.578;5.456;2024-01-30T03:19:32;102376.63;;;6.01;100.00
58622;BME280;44389;51.578;5.456;2024-01-30T03:21:58;102376.34;;;5.98;100.00
58622;BME280;44389;51.578;5.456;2024-01-30T03:24:24;102369.69;;;6.00;100.00
58622;BME280;44389;51.578;5.456;2024-01-30T03:26:49;102368.56;;;5.96;100.00
58622;BME280;44389;51.578;5.456;2024-01-30T03:29:14;102371.66;;;5.92;100.00
58622;BME280;44389;51.578;5.456;2024-01-30T03:31:40;102371.22;;;5.98;100.00
58622;BME280;44389;51.578;5.456;2024-01-30T03:34:05;102368.81;;;5.99;100.00
58622;BME280;44389;51.578;5.456;2024-01-30T03:36:31;102360.34;;;6.00;100.00
58622;BME280;44389;51.578;5.456;2024-01-30T03:38:58;102363.25;;;6.05;100.00
58622;BME280;44389;51.578;5.456;2024-01-30T03:41:24;102370.59;;;6.12;100.00
58622;BME280;44389;51.578;5.456;2024-01-30T03:43:50;102368.38;;;6.17;100.00
58622;BME280;44389;51.578;5.456;2024-01-30T03:46:15;102371.25;;;6.21;100.00
58622;BME280;44389;51.578;5.456;2024-01-30T03:48:40;102368.59;;;6.32;100.00
58622;BME280;44389;51.578;5.456;2024-01-30T03:51:06;102370.78;;;6.39;100.00
58622;BME280;44389;51.578;5.456;2024-01-30T03:53:31;102369.44;;;6.44;100.00
58622;BME280;44389;51.578;5.456;2024-01-30T03:55:56;102371.47;;;6.48;100.00
58622;BME280;44389;51.578;5.456;2024-01-30T03:58:22;102373.66;;;6.55;100.00
58622;BME280;44389;51.578;5.456;2024-01-30T04:00:47;102375.63;;;6.59;100.00
58622;BME280;44389;51.578;5.456;2024-01-30T04:03:14;102382.31;;;6.69;100.00
58622;BME280;44389;51.578;5.456;2024-01-30T04:05:40;102381.84;;;6.75;100.00
58622;BME280;44389;51.578;5.456;2024-01-30T04:08:06;102375.59;;;6.83;100.00
58622;BME280;44389;51.578;5.456;2024-01-30T04:10:32;102376.72;;;6.87;100.00
58622;BME280;44389;51.578;5.456;2024-01-30T04:12:57;102381.16;;;6.89;100.00
58622;BME280;44389;51.578;5.456;2024-01-30T04:15:22;102373.66;;;6.92;100.00
58622;BME280;44389;51.578;5.456;2024-01-30T04:17:48;102376.31;;;6.94;100.00
58622;BME280;44389;51.578;5.456;2024-01-30T04:20:16;102369.75;;;6.98;100.00
58622;BME280;44389;51.578;5.456;2024-01-30T04:22:46;102375.88;;;7.00;100.00
58622;BME280;44389;51.578;5.456;2024-01-30T04:25:13;102373.19;;;6.98;100.00
58622;BME280;44389;51.578;5.456;2024-01-30T04:27:38;102371.72;;;7.02;100.00
58622;BME280;44389;51.578;5.456;2024-01-30T04:30:04;102371.63;;;7.00;100.00
58622;BME280;44389;51.578;5.456;2024-01-30T04:32:29;102360.59;;;7.01;100.00
58622;BME280;44389;51.578;5.456;2024-01-30T04:34:54;102356.34;;;7.02;100.00
58622;BME280;44389;51.578;5.456;2024-01-30T04:37:20;102353.00;;;7.03;100.00
58622;BME280;44389;51.578;5.456;2024-01-30T04:39:45;102347.88;;;7.03;100.00
58622;BME280;44389;51.578;5.456;2024-01-30T04:42:10;102344.72;;;7.07;100.00
58622;BME280;44389;51.578;5.456;2024-01-30T04:44:36;102346.53;;;7.08;100.00
58622;BME280;44389;51.578;5.456;2024-01-30T04:47:01;102341.69;;;7.13;100.00
58622;BME280;44389;51.578;5.456;2024-01-30T04:49:27;102344.56;;;7.17;100.00
58622;BME280;44389;51.578;5.456;2024-01-30T04:51:52;102340.66;;;7.22;100.00
58622;BME280;44389;51.578;5.456;2024-01-30T04:54:18;102340.84;;;7.25;100.00
58622;BME280;44389;51.578;5.456;2024-01-30T04:56:43;102335.72;;;7.25;100.00
58622;BME280;44389;51.578;5.456;2024-01-30T04:59:08;102339.59;;;7.32;100.00
58622;BME280;44389;51.578;5.456;2024-01-30T05:01:34;102344.03;;;7.35;100.00
58622;BME280;44389;51.578;5.456;2024-01-30T05:03:59;102347.47;;;7.35;100.00
58622;BME280;44389;51.578;5.456;2024-01-30T05:06:25;102347.28;;;7.32;100.00
58622;BME280;44389;51.578;5.456;2024-01-30T05:08:51;102348.34;;;7.36;100.00
58622;BME280;44389;51.578;5.456;2024-01-30T05:11:16;102348.34;;;7.36;100.00
58622;BME280;44389;51.578;5.456;2024-01-30T05:13:41;102337.91;;;7.33;100.00
58622;BME280;44389;51.578;5.456;2024-01-30T05:16:06;102342.44;;;7.37;100.00
58622;BME280;44389;51.578;5.456;2024-01-30T05:18:32;102347.00;;;7.41;100.00
58622;BME280;44389;51.578;5.456;2024-01-30T05:20:57;102348.78;;;7.42;100.00
58622;BME280;44389;51.578;5.456;2024-01-30T05:23:23;102342.97;;;7.45;100.00
58622;BME280;44389;51.578;5.456;2024-01-30T05:25:48;102351.44;;;7.44;100.00
58622;BME280;44389;51.578;5.456;2024-01-30T05:28:13;102349.38;;;7.51;100.00
58622;BME280;44389;51.578;5.456;2024-01-30T05:30:39;102342.69;;;7.53;100.00
58622;BME280;44389;51.578;5.456;2024-01-30T05:33:04;102342.00;;;7.56;100.00
58622;BME280;44389;51.578;5.456;2024-01-30T05:35:29;102340.53;;;7.60;100.00
58622;BME280;44389;51.578;5.456;2024-01-30T05:37:55;102343.09;;;7.60;100.00
58622;BME280;44389;51.578;5.456;2024-01-30T05:40:20;102339.75;;;7.61;100.00
58622;BME280;44389;51.578;5.456;2024-01-30T05:42:45;102349.19;;;7.62;100.00
58622;BME280;44389;51.578;5.456;2024-01-30T05:45:11;102338.75;;;7.58;100.00
58622;BME280;44389;51.578;5.456;2024-01-30T05:47:36;102343.97;;;7.60;100.00
58622;BME280;44389;51.578;5.456;2024-01-30T05:50:01;102356.72;;;7.58;100.00
58622;BME280;44389;51.578;5.456;2024-01-30T05:52:26;102349.09;;;7.60;100.00
58622;BME280;44389;51.578;5.456;2024-01-30T05:54:52;102344.06;;;7.62;100.00
58622;BME280;44389;51.578;5.456;2024-01-30T05:57:17;102340.81;;;7.64;100.00
58622;BME280;44389;51.578;5.456;2024-01-30T05:59:43;102341.91;;;7.68;100.00
58622;BME280;44389;51.578;5.456;2024-01-30T06:02:10;102346.34;;;7.70;100.00
58622;BME280;44389;51.578;5.456;2024-01-30T06:04:36;102352.59;;;7.74;100.00
58622;BME280;44389;51.578;5.456;2024-01-30T06:07:01;102355.06;;;7.72;100.00
58622;BME280;44389;51.578;5.456;2024-01-30T06:09:27;102353.38;;;7.73;100.00
58622;BME280;44389;51.578;5.456;2024-01-30T06:11:53;102354.16;;;7.72;100.00
58622;BME280;44389;51.578;5.456;2024-01-30T06:14:18;102356.94;;;7.75;100.00
58622;BME280;44389;51.578;5.456;2024-01-30T06:16:44;102351.22;;;7.79;100.00
58622;BME280;44389;51.578;5.456;2024-01-30T06:19:09;102352.41;;;7.84;100.00
58622;BME280;44389;51.578;5.456;2024-01-30T06:21:34;102351.63;;;7.85;100.00
58622;BME280;44389;51.578;5.456;2024-01-30T06:24:02;102353.59;;;7.89;100.00
58622;BME280;44389;51.578;5.456;2024-01-30T06:26:27;102351.09;;;7.91;100.00
58622;BME280;44389;51.578;5.456;2024-01-30T06:28:52;102357.94;;;7.90;100.00
58622;BME280;44389;51.578;5.456;2024-01-30T06:31:18;102358.91;;;7.93;100.00
58622;BME280;44389;51.578;5.456;2024-01-30T06:33:43;102359.50;;;7.88;100.00
58622;BME280;44389;51.578;5.456;2024-01-30T06:36:11;102366.50;;;7.91;100.00
58622;BME280;44389;51.578;5.456;2024-01-30T06:38:36;102369.16;;;7.93;100.00
58622;BME280;44389;51.578;5.456;2024-01-30T06:41:01;102369.84;;;7.90;100.00
58622;BME280;44389;51.578;5.456;2024-01-30T06:43:27;102372.34;;;7.88;100.00
58622;BME280;44389;51.578;5.456;2024-01-30T06:45:52;102372.34;;;7.88;100.00
58622;BME280;44389;51.578;5.456;2024-01-30T06:48:17;102380.03;;;7.88;100.00
58622;BME280;44389;51.578;5.456;2024-01-30T06:50:43;102373.34;;;7.90;100.00
58622;BME280;44389;51.578;5.456;2024-01-30T06:53:08;102377.69;;;7.91;100.00
58622;BME280;44389;51.578;5.456;2024-01-30T06:55:33;102362.06;;;7.88;100.00
58622;BME280;44389;51.578;5.456;2024-01-30T06:57:59;102375.22;;;7.93;100.00
58622;BME280;44389;51.578;5.456;2024-01-30T07:00:24;102381.22;;;7.94;100.00
58622;BME280;44389;51.578;5.456;2024-01-30T07:02:49;102386.25;;;7.92;100.00
58622;BME280;44389;51.578;5.456;2024-01-30T07:05:15;102393.28;;;7.95;100.00
58622;BME280;44389;51.578;5.456;2024-01-30T07:07:40;102406.91;;;7.94;100.00
58622;BME280;44389;51.578;5.456;2024-01-30T07:10:06;102406.22;;;7.96;100.00
58622;BME280;44389;51.578;5.456;2024-01-30T07:12:31;102416.28;;;7.93;100.00
58622;BME280;44389;51.578;5.456;2024-01-30T07:14:57;102411.34;;;7.96;100.00
58622;BME280;44389;51.578;5.456;2024-01-30T07:17:24;102412.13;;;7.95;100.00
58622;BME280;44389;51.578;5.456;2024-01-30T07:19:50;102407.91;;;7.96;100.00
58622;BME280;44389;51.578;5.456;2024-01-30T07:22:15;102408.69;;;7.95;100.00
58622;BME280;44389;51.578;5.456;2024-01-30T07:24:43;102417.16;;;7.94;100.00
58622;BME280;44389;51.578;5.456;2024-01-30T07:27:14;102420.25;;;8.01;100.00
58622;BME280;44389;51.578;5.456;2024-01-30T07:29:39;102413.44;;;8.02;100.00
58622;BME280;44389;51.578;5.456;2024-01-30T07:32:05;102420.25;;;8.01;100.00
58622;BME280;44389;51.578;5.456;2024-01-30T07:34:30;102419.34;;;8.01;100.00
58622;BME280;44389;51.578;5.456;2024-01-30T07:36:55;102428.72;;;8.00;100.00
58622;BME280;44389;51.578;5.456;2024-01-30T07:39:21;102422.53;;;7.97;100.00
58622;BME280;44389;51.578;5.456;2024-01-30T07:41:46;102428.72;;;8.00;100.00
58622;BME280;44389;51.578;5.456;2024-01-30T07:44:11;102422.72;;;8.00;100.00
58622;BME280;44389;51.578;5.456;2024-01-30T07:46:36;102427.94;;;8.01;100.00
58622;BME280;44389;51.578;5.456;2024-01-30T07:49:02;102430.72;;;8.04;100.00
58622;BME280;44389;51.578;5.456;2024-01-30T07:51:27;102428.03;;;8.03;100.00
58622;BME280;44389;51.578;5.456;2024-01-30T07:53:54;102430.03;;;8.07;100.00
58622;BME280;44389;51.578;5.456;2024-01-30T07:56:20;102432.69;;;8.08;100.00
58622;BME280;44389;51.578;5.456;2024-01-30T07:58:45;102443.38;;;8.15;100.00
58622;BME280;44389;51.578;5.456;2024-01-30T08:01:11;102440.91;;;8.16;100.00
58622;BME280;44389;51.578;5.456;2024-01-30T08:03:36;102443.66;;;8.19;100.00
58622;BME280;44389;51.578;5.456;2024-01-30T08:06:02;102443.66;;;8.19;100.00
58622;BME280;44389;51.578;5.456;2024-01-30T08:08:28;102457.59;;;8.23;100.00
58622;BME280;44389;51.578;5.456;2024-01-30T08:10:53;102447.41;;;8.24;100.00
58622;BME280;44389;51.578;5.456;2024-01-30T08:13:18;102444.06;;;8.26;100.00
58622;BME280;44389;51.578;5.456;2024-01-30T08:15:44;102450.19;;;8.28;100.00
58622;BME280;44389;51.578;5.456;2024-01-30T08:18:09;102457.22;;;8.30;100.00
58622;BME280;44389;51.578;5.456;2024-01-30T08:20:34;102457.31;;;8.32;100.00
58622;BME280;44389;51.578;5.456;2024-01-30T08:23:00;102458.41;;;8.35;100.00
58622;BME280;44389;51.578;5.456;2024-01-30T08:25:25;102454.53;;;8.42;100.00
58622;BME280;44389;51.578;5.456;2024-01-30T08:27:51;102459.88;;;8.45;100.00
58622;BME280;44389;51.578;5.456;2024-01-30T08:30:16;102459.44;;;8.51;100.00
58622;BME280;44389;51.578;5.456;2024-01-30T08:32:41;102455.56;;;8.57;100.00
58622;BME280;44389;51.578;5.456;2024-01-30T08:35:07;102453.16;;;8.61;100.00
58622;BME280;44389;51.578;5.456;2024-01-30T08:37:33;102450.91;;;8.65;100.00
58622;BME280;44389;51.578;5.456;2024-01-30T08:39:59;102455.44;;;8.69;100.00
58622;BME280;44389;51.578;5.456;2024-01-30T08:42:25;102450.69;;;8.76;100.00
58622;BME280;44389;51.578;5.456;2024-01-30T08:44:50;102450.97;;;8.80;100.00
58622;BME280;44389;51.578;5.456;2024-01-30T08:47:17;102452.13;;;8.85;100.00
58622;BME280;44389;51.578;5.456;2024-01-30T08:49:43;102454.09;;;8.89;100.00
58622;BME280;44389;51.578;5.456;2024-01-30T08:52:10;102452.53;;;8.92;100.00
58622;BME280;44389;51.578;5.456;2024-01-30T08:54:35;102454.69;;;8.99;100.00
58622;BME280;44389;51.578;5.456;2024-01-30T08:57:01;102447.94;;;9.01;100.00
58622;BME280;44389;51.578;5.456;2024-01-30T08:59:27;102455.25;;;9.08;100.00
58622;BME280;44389;51.578;5.456;2024-01-30T09:01:52;102456.34;;;9.12;100.00
58622;BME280;44389;51.578;5.456;2024-01-30T09:04:20;102455.53;;;9.13;100.00
58622;BME280;44389;51.578;5.456;2024-01-30T09:06:46;102457.78;;;9.21;100.00
58622;BME280;44389;51.578;5.456;2024-01-30T09:09:11;102458.16;;;9.28;100.00
58622;BME280;44389;51.578;5.456;2024-01-30T09:11:36;102459.16;;;9.30;100.00
58622;BME280;44389;51.578;5.456;2024-01-30T09:14:02;102462.78;;;9.33;100.00
58622;BME280;44389;51.578;5.456;2024-01-30T09:16:27;102455.44;;;9.39;100.00
58622;BME280;44389;51.578;5.456;2024-01-30T09:18:53;102460.78;;;9.43;100.00
58622;BME280;44389;51.578;5.456;2024-01-30T09:21:18;102460.88;;;9.44;100.00
58622;BME280;44389;51.578;5.456;2024-01-30T09:23:44;102461.34;;;9.52;100.00
58622;BME280;44389;51.578;5.456;2024-01-30T09:26:09;102474.38;;;9.55;100.00
58622;BME280;44389;51.578;5.456;2024-01-30T09:28:34;102465.16;;;9.59;100.00
58622;BME280;44389;51.578;5.456;2024-01-30T09:31:00;102473.25;;;9.65;100.00
58622;BME280;44389;51.578;5.456;2024-01-30T09:33:25;102467.47;;;9.69;100.00
58622;BME280;44389;51.578;5.456;2024-01-30T09:35:50;102478.16;;;9.75;100.00
58622;BME280;44389;51.578;5.456;2024-01-30T09:38:16;102473.38;;;9.81;100.00
58622;BME280;44389;51.578;5.456;2024-01-30T09:40:41;102488.28;;;9.87;100.00
58622;BME280;44389;51.578;5.456;2024-01-30T09:43:07;102493.00;;;9.94;100.00
58622;BME280;44389;51.578;5.456;2024-01-30T09:45:33;102493.34;;;10.00;100.00
58622;BME280;44389;51.578;5.456;2024-01-30T09:47:59;102498.06;;;10.08;100.00
58622;BME280;44389;51.578;5.456;2024-01-30T09:50:26;102499.94;;;10.10;100.00
58622;BME280;44389;51.578;5.456;2024-01-30T09:52:53;102506.06;;;10.12;100.00
58622;BME280;44389;51.578;5.456;2024-01-30T09:55:20;102493.28;;;10.14;100.00
58622;BME280;44389;51.578;5.456;2024-01-30T09:57:45;102492.56;;;10.16;100.00
58622;BME280;44389;51.578;5.456;2024-01-30T10:00:12;102494.34;;;10.17;100.00
58622;BME280;44389;51.578;5.456;2024-01-30T10:02:38;102497.06;;;10.20;100.00
58622;BME280;44389;51.578;5.456;2024-01-30T10:05:04;102497.34;;;10.25;100.00
58622;BME280;44389;51.578;5.456;2024-01-30T10:07:30;102496.44;;;10.25;100.00
58622;BME280;44389;51.578;5.456;2024-01-30T10:09:56;102502.31;;;10.22;100.00
58622;BME280;44389;51.578;5.456;2024-01-30T10:12:22;102499.66;;;10.20;100.00
58622;BME280;44389;51.578;5.456;2024-01-30T10:14:47;102490.94;;;10.18;100.00
58622;BME280;44389;51.578;5.456;2024-01-30T10:17:12;102503.75;;;10.17;100.00
58622;BME280;44389;51.578;5.456;2024-01-30T10:19:39;102501.88;;;10.14;100.00
58622;BME280;44389;51.578;5.456;2024-01-30T10:22:05;102500.91;;;10.12;100.00
58622;BME280;44389;51.578;5.456;2024-01-30T10:24:31;102506.06;;;10.12;100.00
58622;BME280;44389;51.578;5.456;2024-01-30T10:26:56;102521.53;;;10.12;100.00
58622;BME280;44389;51.578;5.456;2024-01-30T10:29:22;102519.13;;;10.15;100.00
58622;BME280;44389;51.578;5.456;2024-01-30T10:32:04;102515.81;;;10.18;100.00
58622;BME280;44389;51.578;5.456;2024-01-30T10:34:30;102517.78;;;10.22;100.00
58622;BME280;44389;51.578;5.456;2024-01-30T10:37:08;102508.72;;;10.29;100.00
58622;BME280;44389;51.578;5.456;2024-01-30T10:39:42;102508.91;;;10.32;100.00
58622;BME280;44389;51.578;5.456;2024-01-30T10:42:15;102516.19;;;10.39;100.00
58622;BME280;44389;51.578;5.456;2024-01-30T10:45:00;102527.84;;;10.47;100.00
58622;BME280;44389;51.578;5.456;2024-01-30T10:47:28;102523.50;;;10.46;100.00
58622;BME280;44389;51.578;5.456;2024-01-30T10:49:56;102519.94;;;10.44;100.00
58622;BME280;44389;51.578;5.456;2024-01-30T10:52:25;102517.47;;;10.46;100.00
58622;BME280;44389;51.578;5.456;2024-01-30T10:54:51;102516.63;;;10.47;100.00
58622;BME280;44389;51.578;5.456;2024-01-30T10:57:17;102522.22;;;10.54;100.00
58622;BME280;44389;51.578;5.456;2024-01-30T10:59:43;102513.69;;;10.56;100.00
58622;BME280;44389;51.578;5.456;2024-01-30T11:02:10;102518.13;;;10.58;100.00
58622;BME280;44389;51.578;5.456;2024-01-30T11:04:41;102523.44;;;10.61;100.00
58622;BME280;44389;51.578;5.456;2024-01-30T11:07:23;102524.53;;;10.65;100.00
58622;BME280;44389;51.578;5.456;2024-01-30T11:10:02;102521.59;;;10.59;100.00
58622;BME280;44389;51.578;5.456;2024-01-30T11:12:30;102530.78;;;10.53;100.00
58622;BME280;44389;51.578;5.456;2024-01-30T11:15:05;102527.22;;;10.51;100.00
58622;BME280;44389;51.578;5.456;2024-01-30T11:17:44;102526.22;;;10.49;100.00
58622;BME280;44389;51.578;5.456;2024-01-30T11:20:22;102526.06;;;10.46;100.00
58622;BME280;44389;51.578;5.456;2024-01-30T11:22:50;102532.03;;;10.45;100.00
58622;BME280;44389;51.578;5.456;2024-01-30T11:25:17;102527.38;;;10.54;100.00
58622;BME280;44389;51.578;5.456;2024-01-30T11:27:44;102521.88;;;10.63;100.00
58622;BME280;44389;51.578;5.456;2024-01-30T11:30:11;102514.41;;;10.68;100.00
58622;BME280;44389;51.578;5.456;2024-01-30T11:32:36;102519.84;;;10.89;100.00
58622;BME280;44389;51.578;5.456;2024-01-30T11:35:05;102526.91;;;11.08;100.00
58622;BME280;44389;51.578;5.456;2024-01-30T11:37:37;102518.38;;;11.26;100.00
58622;BME280;44389;51.578;5.456;2024-01-30T11:40:04;102517.44;;;11.40;100.00
58622;BME280;44389;51.578;5.456;2024-01-30T11:42:29;102520.91;;;11.41;100.00
58622;BME280;44389;51.578;5.456;2024-01-30T11:44:55;102518.38;;;11.42;100.00
58622;BME280;44389;51.578;5.456;2024-01-30T11:47:20;102502.75;;;11.39;100.00
58622;BME280;44389;51.578;5.456;2024-01-30T11:49:45;102515.97;;;11.29;100.00
58622;BME280;44389;51.578;5.456;2024-01-30T11:52:11;102523.13;;;11.18;100.00
58622;BME280;44389;51.578;5.456;2024-01-30T11:54:39;102533.66;;;11.06;100.00
58622;BME280;44389;51.578;5.456;2024-01-30T11:57:05;102516.81;;;10.96;100.00
58622;BME280;44389;51.578;5.456;2024-01-30T11:59:30;102524.28;;;10.92;100.00
58622;BME280;44389;51.578;5.456;2024-01-30T12:01:55;102520.72;;;10.90;100.00
58622;BME280;44389;51.578;5.456;2024-01-30T12:04:21;102519.47;;;10.98;100.00
58622;BME280;44389;51.578;5.456;2024-01-30T12:06:51;102514.66;;;11.04;100.00
58622;BME280;44389;51.578;5.456;2024-01-30T12:09:16;102518.53;;;11.12;100.00
58622;BME280;44389;51.578;5.456;2024-01-30T12:11:46;102506.13;;;11.22;100.00
58622;BME280;44389;51.578;5.456;2024-01-30T12:14:12;102528.09;;;11.30;100.00
58622;BME280;44389;51.578;5.456;2024-01-30T12:16:37;102503.13;;;11.30;100.00
58622;BME280;44389;51.578;5.456;2024-01-30T12:19:02;102530.13;;;11.20;100.00
58622;BME280;44389;51.578;5.456;2024-01-30T12:21:29;102534.34;;;11.18;100.00
58622;BME280;44389;51.578;5.456;2024-01-30T12:23:54;102539.09;;;11.11;100.00
58622;BME280;44389;51.578;5.456;2024-01-30T12:26:20;102540.34;;;11.02;98.33
58622;BME280;44389;51.578;5.456;2024-01-30T12:28:49;102546.00;;;10.95;97.24
58622;BME280;44389;51.578;5.456;2024-01-30T12:31:15;102543.50;;;10.82;96.25
58622;BME280;44389;51.578;5.456;2024-01-30T12:33:40;102549.09;;;10.90;96.12
58622;BME280;44389;51.578;5.456;2024-01-30T12:36:06;102548.34;;;11.07;96.29
58622;BME280;44389;51.578;5.456;2024-01-30T12:38:32;102557.59;;;11.35;93.96
58622;BME280;44389;51.578;5.456;2024-01-30T12:40:57;102555.84;;;11.50;91.53